»·PEaware :: N1128 KPDX-KSFO

N1128 :: KPDX-KSFO

FLIGHT INFORMATION

Flight Status: Arrived
Operator: Privately registered:
United States
More flights under this callsign
Pilot: Siddique N. (20419)
Aircraft: Unknown
(BT7)
More flights by this aircraft type
Origin: KPDX Portland Intl
United States
Destination: KSFO San Francisco Intl
United States
More flights between these airports :: More routes between these airports
Route: +MINNE5 HISKU Q5 HUPTU MRRLO BDEGA3
File this flight plan on PilotEdge
Remarks:
Altitude:
(Current/Filed)
37,000ft
Speed:
(Current/Filed)
400kts
Departed: 23-Sep-20 09:54 AM
Arrived: 23-Sep-20 11:14 AM
Distance/Time
Traveled:
478nm/1:19
Distance/Time
To Go:
Arrived

Flight Plot

Page will automatically refresh every two minutes.

Flight plan parsing failed; only flown route is shown


Map Options




Map Legend


Flown Route
Filed Route
Departure Airport
Arrival Airport
Navaid (VOR, NDB)
Fix

Horizontal Profiles

Position Reports

Time Latitude Longitude Heading Altitude Ground
Speed
23-Sep-20 09:32 45.587631 -122.583996 210 21ft 0kts
23-Sep-20 09:33 45.587631 -122.583996 210 21ft 0kts
23-Sep-20 09:34 45.587631 -122.583996 210 21ft 0kts
23-Sep-20 09:35 45.587631 -122.583996 210 21ft 0kts
23-Sep-20 09:36 45.587631 -122.583996 210 21ft 0kts
23-Sep-20 09:37 45.587631 -122.583996 210 21ft 0kts
23-Sep-20 09:38 45.587631 -122.583996 210 21ft 0kts
23-Sep-20 09:39 45.587631 -122.583996 210 21ft 0kts
23-Sep-20 09:40 45.587631 -122.583996 210 21ft 0kts
23-Sep-20 09:41 45.587631 -122.583996 210 21ft 0kts
23-Sep-20 09:42 45.587631 -122.583996 210 21ft 0kts
23-Sep-20 09:43 45.587631 -122.583996 210 21ft 0kts
23-Sep-20 09:44 45.587631 -122.583996 210 21ft 0kts
23-Sep-20 09:45 45.587631 -122.583996 210 21ft 0kts
23-Sep-20 09:46 45.587631 -122.583996 210 21ft 0kts
23-Sep-20 09:47 45.587631 -122.583996 210 21ft 0kts
23-Sep-20 09:48 45.587738 -122.583450 56 21ft 16kts
23-Sep-20 09:49 45.591257 -122.589803 299 21ft 25kts
23-Sep-20 09:50 45.594185 -122.597270 318 24ft 6kts
23-Sep-20 09:51 45.594374 -122.597424 353 24ft 0kts
23-Sep-20 09:52 45.595121 -122.596621 110 24ft 0kts
23-Sep-20 09:53 45.576448 -122.546372 117 648ft 199kts
23-Sep-20 09:54 45.561812 -122.468498 98 2484ft 206kts
23-Sep-20 09:55 45.547847 -122.388587 100 4097ft 246kts
23-Sep-20 09:56 45.508431 -122.323864 169 7568ft 244kts
23-Sep-20 09:57 45.437564 -122.318151 224 11224ft 224kts
23-Sep-20 09:58 45.408525 -122.390256 244 14757ft 217kts
23-Sep-20 09:59 45.378405 -122.479039 246 18104ft 318kts
23-Sep-20 10:00 45.335051 -122.617909 247 21249ft 454kts
23-Sep-20 10:01 45.278279 -122.801186 246 24990ft 537kts
23-Sep-20 10:02 45.178820 -122.951794 197 26996ft 583kts
23-Sep-20 10:03 45.011676 -122.944073 179 26957ft 617kts
23-Sep-20 10:04 44.839918 -122.936716 182 26941ft 617kts
23-Sep-20 10:05 44.669119 -122.932204 181 26939ft 616kts
23-Sep-20 10:06 44.498084 -122.930536 182 26939ft 616kts
23-Sep-20 10:07 44.323742 -122.922713 181 26967ft 639kts
23-Sep-20 10:08 44.149115 -122.914870 180 26968ft 609kts
23-Sep-20 10:09 43.996232 -122.906685 180 26959ft 508kts
23-Sep-20 10:10 43.859614 -122.898390 180 26967ft 490kts
23-Sep-20 10:11 43.723667 -122.897818 183 26967ft 491kts
23-Sep-20 10:12 43.586387 -122.899838 183 26967ft 493kts
23-Sep-20 10:13 43.449439 -122.902062 183 26967ft 495kts
23-Sep-20 10:14 43.311593 -122.903032 180 26971ft 500kts
23-Sep-20 10:15 43.172061 -122.895752 180 26967ft 504kts
23-Sep-20 10:16 43.031283 -122.888654 180 26967ft 508kts
23-Sep-20 10:17 42.891738 -122.883314 181 26965ft 497kts
23-Sep-20 10:18 42.754987 -122.879800 181 26919ft 487kts
23-Sep-20 10:19 42.621263 -122.878340 182 26911ft 477kts
23-Sep-20 10:20 42.493361 -122.877654 181 26913ft 452kts
23-Sep-20 10:21 42.368425 -122.874235 181 26911ft 447kts
23-Sep-20 10:22 42.244735 -122.870908 181 26912ft 443kts
23-Sep-20 10:23 42.124341 -122.867634 181 26910ft 425kts
23-Sep-20 10:24 42.006593 -122.864338 181 26921ft 438kts
23-Sep-20 10:25 41.877104 -122.861525 181 26920ft 489kts
23-Sep-20 10:26 41.738288 -122.859262 181 26913ft 498kts
23-Sep-20 10:27 41.602047 -122.857092 181 26912ft 485kts
23-Sep-20 10:28 41.468633 -122.854872 179 26914ft 472kts
23-Sep-20 10:29 41.341015 -122.846848 179 26914ft 459kts
23-Sep-20 10:30 41.212273 -122.838853 179 26916ft 468kts
23-Sep-20 10:31 41.081180 -122.831008 179 26914ft 477kts
23-Sep-20 10:32 40.947536 -122.823284 179 26914ft 484kts
23-Sep-20 10:33 40.812128 -122.815714 179 26915ft 491kts
23-Sep-20 10:34 40.674944 -122.808285 179 26914ft 497kts
23-Sep-20 10:35 40.536091 -122.801017 179 26814ft 503kts
23-Sep-20 10:36 40.396864 -122.793914 179 26804ft 496kts
23-Sep-20 10:38 40.261515 -122.787040 179 26831ft 465kts
23-Sep-20 10:39 40.138485 -122.780524 179 26828ft 427kts
23-Sep-20 10:40 40.021573 -122.774268 179 26840ft 435kts
23-Sep-20 10:41 39.894520 -122.767896 179 26833ft 467kts
23-Sep-20 10:42 39.764106 -122.761265 179 26833ft 470kts
23-Sep-20 10:43 39.632948 -122.754404 177 26832ft 473kts
23-Sep-20 10:44 39.502522 -122.736262 170 26909ft 472kts
23-Sep-20 10:45 39.373823 -122.705005 170 26914ft 472kts
23-Sep-20 10:46 39.245437 -122.669254 168 26913ft 473kts
23-Sep-20 10:47 39.119754 -122.632578 168 26906ft 442kts
23-Sep-20 10:48 39.005290 -122.600139 170 26912ft 411kts
23-Sep-20 10:49 38.892006 -122.579189 190 26974ft 405kts
23-Sep-20 10:50 38.781608 -122.604511 192 26101ft 396kts
23-Sep-20 10:51 38.674901 -122.633895 193 24916ft 387kts
23-Sep-20 10:52 38.568708 -122.665270 195 24439ft 402kts
23-Sep-20 10:53 38.460830 -122.694757 192 23522ft 391kts
23-Sep-20 10:54 38.357152 -122.721731 194 22002ft 366kts
23-Sep-20 10:54 38.278019 -122.744809 194 20427ft 338kts
23-Sep-20 10:55 38.181237 -122.745816 168 18970ft 368kts
23-Sep-20 10:57 38.070663 -122.712503 169 17399ft 340kts
23-Sep-20 10:57 37.996195 -122.691896 171 16287ft 318kts
23-Sep-20 10:58 37.910182 -122.667927 168 15969ft 311kts
23-Sep-20 10:59 37.841824 -122.602944 142 14869ft 296kts
23-Sep-20 11:00 37.778546 -122.534545 142 12279ft 302kts
23-Sep-20 11:01 37.718021 -122.470206 141 10973ft 260kts
23-Sep-20 11:02 37.668692 -122.421204 148 10959ft 200kts
23-Sep-20 11:03 37.612638 -122.377068 152 10970ft 246kts
23-Sep-20 11:04 37.555316 -122.337260 153 10966ft 233kts
23-Sep-20 11:05 37.499030 -122.298363 153 9785ft 220kts
23-Sep-20 11:06 37.446538 -122.264337 152 7742ft 204kts
23-Sep-20 11:07 37.456509 -122.216473 23 5446ft 192kts
23-Sep-20 11:08 37.504571 -122.189440 22 3654ft 176kts
23-Sep-20 11:09 37.543880 -122.196544 300 2971ft 159kts
23-Sep-20 11:10 37.568812 -122.255064 301 1762ft 201kts
23-Sep-20 11:11 37.591867 -122.305993 302 789ft 156kts
23-Sep-20 11:12 37.611786 -122.352924 298 161ft 147kts
23-Sep-20 11:13 37.623123 -122.379661 302 14ft 12kts
23-Sep-20 11:14 37.626388 -122.382999 26 14ft 9kts
23-Sep-20 11:15 37.627645 -122.382879 345 14ft 0kts
23-Sep-20 11:16 37.627645 -122.382879 345 14ft 0kts

Navigation Log

Ident Type
Flight plan parsing failed, navigation log unavailable